Aviation Digital Data Service (ADDS)

Output produced by METARs form (0943 UTC 17 November 2018)
found at http://www.aviationweather.gov/metar/data/
 
EIME 170900Z 11010KT 9999 FEW012 BKN014 11/10 Q1023 NOSIG
TAF EIME 170800Z 1709/1718 11013KT 9999 SCT012 BKN017 
     TEMPO 1709/1714 12015G25KT FEW008 BKN012
       
EIKN 170930Z 13015KT 4800 BR BKN002 BKN006 11/10 Q1021 BECMG BKN005
TAF AMD EIKN 170754Z 1707/1806 13014KT 9999 SCT003 BKN005 
     TEMPO 1707/1714 13015G25KT 
     TEMPO 1707/1710 3000 BR BKN002 
     BECMG 1712/1715 SCT008 BKN013 
     TEMPO 1715/1719 BKN008 
     BECMG 1719/1721 FEW012 BKN030 
     BECMG 1721/1723 11009KT
       
EICK 170930Z 12016KT 3500 BR BKN003 11/11 Q1019 TEMPO 2000 OVC002
TAF EICK 170500Z 1706/1806 14015KT 7000 SCT002 BKN005 
     TEMPO 1706/1714 13016G26KT 
     TEMPO 1706/1712 2000 -DZ BR SCT001 BKN002 
     PROB40 
     TEMPO 1706/1712 0800 FG BKN001 
     BECMG 1712/1714 11015KT 9999 NSW SCT003 BKN007 
     TEMPO 1714/1719 11015G25KT 3000 -DZ BR BKN003 
     BECMG 1719/1721 FEW012 BKN017 
     TEMPO 1803/1806 11016G27KT
       
EIDL 170930Z 16021KT 9999 SCT020 13/10 Q1021
TAF EIDL 170800Z 1709/1718 14017KT 9999 FEW013 BKN020 
     TEMPO 1709/1718 13018G30KT 
     TEMPO 1709/1711 BKN013
       
EIDW 170930Z 13010KT 9999 FEW009 BKN012 12/10 Q1024 BECMG BKN015
TAF EIDW 170500Z 1706/1806 13012KT 9999 FEW012 BKN018 
     TEMPO 1706/1715 FEW007 BKN012 
     PROB30 
     TEMPO 1706/1710 BKN007 
     TEMPO 1716/1723 10011KT
       
EIKY 170930Z 14021G33KT 9999 SCT011 BKN013 13/11 Q1017
TAF EIKY 170800Z 1709/1718 13008KT 9999 FEW010 BKN017 
     TEMPO 1709/1718 13013G24KT BKN012
       
EINN 170930Z 11016KT 9000 FEW008 BKN012 13/10 Q1020 NOSIG
TAF EINN 170500Z 1706/1806 12015KT 9999 FEW015 BKN020 
     TEMPO 1706/1720 BKN015 
     PROB40 
     TEMPO 1706/1710 5000 -DZ BR BKN008 
     TEMPO 1709/1716 12016G27KT
       
EISG 170930Z 12010KT 9000 BKN013 OVC018 12/10 Q1021
TAF EISG 170800Z 1709/1718 12013KT 9999 FEW013 BKN020 
     PROB40 
     TEMPO 1709/1715 13014G25KT 
     TEMPO 1709/1717 BKN013
       
EIWF 170930Z 14013KT 110V170 9000 OVC010 12/10 Q1022
TAF EIWF 170800Z 1709/1718 15014KT 9999 SCT008 BKN012 
     TEMPO 1709/1712 15015G25KT 
     TEMPO 1709/1716 BKN008 
     BECMG 1711/1713 12014KT 
     TEMPO 1712/1717 11015G25KT